Accueil
METAR-TAF:

METAR-TAF

Aéroports :

Fritzlar, Allemagne

latitude: 51-07N, longitude: 009-17E, altitude: 172 m

Observation

Le bulletin a été fait il y a 17 minutes, à 04:20 UTC
Vent 1 kt de nord-ouest
Température 8°C
Humidité 93%
Pression 1009 hPa
Visibilité 10 km ou plus
Nuages épars à une hauteur de 4400 ft
Nuages fragmentés à une hauteur de 12000 ft

METAR: ETHF 280420Z 32001KT 9999 SCT044 BKN120 08/07 Q1009 BLU

Heure: 06:37 (04:37 UTC)


TAF: absent

Observations et prévisions météorologiques de plus de 4000 aéroports (messages METAR et TAF).

Les stations disponibles sont représentées par des disques jaunes et rouges sur la carte.

Passer la souris dessus pour voir le nom de la station.

Cliquer dessus pour voir les observations et prévisions météorologiques.

Pour changer de carte: cliquez sur les boutons verts avec une croix noire pour zoomer, sur le bouton vert avec un tiret pour effectuer un zoom arrière, ou sur les flèches vertes pour les cartes adjacentes.


METAR-TAF: